sensor_id;sensor_type;location;lat;lon;timestamp;temperature;humidity
15386;DHT22;7791;47.246;9.648;2022-11-23T00:01:17;5.80;99.90
15386;DHT22;7791;47.246;9.648;2022-11-23T00:03:46;5.80;99.90
15386;DHT22;7791;47.246;9.648;2022-11-23T00:06:13;5.90;99.90
15386;DHT22;7791;47.246;9.648;2022-11-23T00:08:40;5.90;99.90
15386;DHT22;7791;47.246;9.648;2022-11-23T00:14:09;6.00;99.90
15386;DHT22;7791;47.246;9.648;2022-11-23T00:16:35;5.90;99.90
15386;DHT22;7791;47.246;9.648;2022-11-23T00:19:02;5.90;99.90
15386;DHT22;7791;47.246;9.648;2022-11-23T00:21:29;5.90;99.90
15386;DHT22;7791;47.246;9.648;2022-11-23T00:23:57;5.90;99.90
15386;DHT22;7791;47.246;9.648;2022-11-23T00:26:24;6.00;99.90
15386;DHT22;7791;47.246;9.648;2022-11-23T00:28:52;6.10;99.90
15386;DHT22;7791;47.246;9.648;2022-11-23T00:31:19;6.10;99.90
15386;DHT22;7791;47.246;9.648;2022-11-23T00:33:48;6.10;99.90
15386;DHT22;7791;47.246;9.648;2022-11-23T00:36:14;6.00;99.90
15386;DHT22;7791;47.246;9.648;2022-11-23T00:38:42;6.10;99.90
15386;DHT22;7791;47.246;9.648;2022-11-23T00:41:10;6.10;99.90
15386;DHT22;7791;47.246;9.648;2022-11-23T00:43:37;6.00;99.90
15386;DHT22;7791;47.246;9.648;2022-11-23T00:46:05;6.00;99.90
15386;DHT22;7791;47.246;9.648;2022-11-23T00:48:31;6.00;99.90
15386;DHT22;7791;47.246;9.648;2022-11-23T00:50:59;6.00;99.90
15386;DHT22;7791;47.246;9.648;2022-11-23T00:53:25;5.90;99.90
15386;DHT22;7791;47.246;9.648;2022-11-23T00:55:51;5.90;99.90
15386;DHT22;7791;47.246;9.648;2022-11-23T00:58:20;5.90;99.90
15386;DHT22;7791;47.246;9.648;2022-11-23T01:00:47;5.90;99.90
15386;DHT22;7791;47.246;9.648;2022-11-23T01:03:13;5.90;99.90
15386;DHT22;7791;47.246;9.648;2022-11-23T01:05:39;5.80;99.90
15386;DHT22;7791;47.246;9.648;2022-11-23T01:08:06;5.80;99.90
15386;DHT22;7791;47.246;9.648;2022-11-23T01:10:33;5.80;99.90
15386;DHT22;7791;47.246;9.648;2022-11-23T01:12:59;5.80;99.90
15386;DHT22;7791;47.246;9.648;2022-11-23T01:15:26;5.70;99.90
15386;DHT22;7791;47.246;9.648;2022-11-23T01:17:52;5.70;99.90
15386;DHT22;7791;47.246;9.648;2022-11-23T01:20:18;5.70;99.90
15386;DHT22;7791;47.246;9.648;2022-11-23T01:22:44;5.70;99.90
15386;DHT22;7791;47.246;9.648;2022-11-23T01:25:10;5.60;99.90
15386;DHT22;7791;47.246;9.648;2022-11-23T01:27:36;5.60;99.90
15386;DHT22;7791;47.246;9.648;2022-11-23T01:30:03;5.60;99.90
15386;DHT22;7791;47.246;9.648;2022-11-23T01:32:30;5.70;99.90
15386;DHT22;7791;47.246;9.648;2022-11-23T01:34:57;5.70;99.90
15386;DHT22;7791;47.246;9.648;2022-11-23T01:37:25;5.70;99.90
15386;DHT22;7791;47.246;9.648;2022-11-23T01:39:51;5.70;99.90
15386;DHT22;7791;47.246;9.648;2022-11-23T01:42:20;5.70;99.90
15386;DHT22;7791;47.246;9.648;2022-11-23T01:44:49;5.70;99.90
15386;DHT22;7791;47.246;9.648;2022-11-23T01:47:15;5.70;99.90
15386;DHT22;7791;47.246;9.648;2022-11-23T01:49:45;5.70;99.90
15386;DHT22;7791;47.246;9.648;2022-11-23T01:52:17;5.70;99.90
15386;DHT22;7791;47.246;9.648;2022-11-23T01:54:47;5.70;99.90
15386;DHT22;7791;47.246;9.648;2022-11-23T01:57:18;5.60;99.90
15386;DHT22;7791;47.246;9.648;2022-11-23T01:59:56;5.60;99.90
15386;DHT22;7791;47.246;9.648;2022-11-23T02:02:23;5.70;99.90
15386;DHT22;7791;47.246;9.648;2022-11-23T02:04:53;5.60;99.90
15386;DHT22;7791;47.246;9.648;2022-11-23T02:07:21;5.60;99.90
15386;DHT22;7791;47.246;9.648;2022-11-23T02:09:49;5.60;99.90
15386;DHT22;7791;47.246;9.648;2022-11-23T02:12:17;5.50;99.90
15386;DHT22;7791;47.246;9.648;2022-11-23T02:14:43;5.50;99.90
15386;DHT22;7791;47.246;9.648;2022-11-23T02:17:10;5.50;99.90
15386;DHT22;7791;47.246;9.648;2022-11-23T02:19:40;5.40;99.90
15386;DHT22;7791;47.246;9.648;2022-11-23T02:22:19;5.30;99.90
15386;DHT22;7791;47.246;9.648;2022-11-23T02:24:49;5.30;99.90
15386;DHT22;7791;47.246;9.648;2022-11-23T02:27:20;5.20;99.90
15386;DHT22;7791;47.246;9.648;2022-11-23T02:33:04;5.00;99.90
15386;DHT22;7791;47.246;9.648;2022-11-23T02:35:30;5.00;99.90
15386;DHT22;7791;47.246;9.648;2022-11-23T02:37:57;5.00;99.90
15386;DHT22;7791;47.246;9.648;2022-11-23T02:40:26;5.10;99.90
15386;DHT22;7791;47.246;9.648;2022-11-23T02:42:53;5.10;99.90
15386;DHT22;7791;47.246;9.648;2022-11-23T02:45:26;5.10;99.90
15386;DHT22;7791;47.246;9.648;2022-11-23T02:47:53;5.20;99.90
15386;DHT22;7791;47.246;9.648;2022-11-23T02:50:20;5.10;99.90
15386;DHT22;7791;47.246;9.648;2022-11-23T02:52:45;5.10;99.90
15386;DHT22;7791;47.246;9.648;2022-11-23T02:55:11;5.10;99.90
15386;DHT22;7791;47.246;9.648;2022-11-23T02:57:38;5.10;99.90
15386;DHT22;7791;47.246;9.648;2022-11-23T03:00:07;5.00;99.90
15386;DHT22;7791;47.246;9.648;2022-11-23T03:02:34;5.00;99.90
15386;DHT22;7791;47.246;9.648;2022-11-23T03:05:01;5.00;99.90
15386;DHT22;7791;47.246;9.648;2022-11-23T03:07:28;4.90;99.90
15386;DHT22;7791;47.246;9.648;2022-11-23T03:09:53;4.90;99.90
15386;DHT22;7791;47.246;9.648;2022-11-23T03:12:19;4.90;99.90
15386;DHT22;7791;47.246;9.648;2022-11-23T03:14:58;4.90;99.90
15386;DHT22;7791;47.246;9.648;2022-11-23T03:17:25;4.90;99.90
15386;DHT22;7791;47.246;9.648;2022-11-23T03:19:51;4.80;99.90
15386;DHT22;7791;47.246;9.648;2022-11-23T03:22:17;4.80;99.90
15386;DHT22;7791;47.246;9.648;2022-11-23T03:24:47;4.70;99.90
15386;DHT22;7791;47.246;9.648;2022-11-23T03:27:14;4.60;99.90
15386;DHT22;7791;47.246;9.648;2022-11-23T03:29:47;4.50;99.90
15386;DHT22;7791;47.246;9.648;2022-11-23T03:32:13;4.50;99.90
15386;DHT22;7791;47.246;9.648;2022-11-23T03:34:40;4.50;99.90
15386;DHT22;7791;47.246;9.648;2022-11-23T03:37:06;4.50;99.90
15386;DHT22;7791;47.246;9.648;2022-11-23T03:39:32;4.50;99.90
15386;DHT22;7791;47.246;9.648;2022-11-23T03:41:58;4.40;99.90
15386;DHT22;7791;47.246;9.648;2022-11-23T03:44:23;4.20;99.90
15386;DHT22;7791;47.246;9.648;2022-11-23T03:49:54;4.10;99.90
15386;DHT22;7791;47.246;9.648;2022-11-23T03:52:20;4.10;99.90
15386;DHT22;7791;47.246;9.648;2022-11-23T03:54:46;4.00;99.90
15386;DHT22;7791;47.246;9.648;2022-11-23T03:57:12;4.00;99.90
15386;DHT22;7791;47.246;9.648;2022-11-23T03:59:42;4.00;99.90
15386;DHT22;7791;47.246;9.648;2022-11-23T04:02:09;3.90;99.90
15386;DHT22;7791;47.246;9.648;2022-11-23T04:04:34;3.90;99.90
15386;DHT22;7791;47.246;9.648;2022-11-23T04:07:02;3.80;99.90
15386;DHT22;7791;47.246;9.648;2022-11-23T04:09:28;3.70;99.90
15386;DHT22;7791;47.246;9.648;2022-11-23T04:11:53;3.60;99.90
15386;DHT22;7791;47.246;9.648;2022-11-23T04:14:19;3.60;99.90
15386;DHT22;7791;47.246;9.648;2022-11-23T04:16:59;3.40;99.90
15386;DHT22;7791;47.246;9.648;2022-11-23T04:19:25;3.20;99.90
15386;DHT22;7791;47.246;9.648;2022-11-23T04:21:51;3.00;99.90
15386;DHT22;7791;47.246;9.648;2022-11-23T04:24:19;2.90;99.90
15386;DHT22;7791;47.246;9.648;2022-11-23T04:26:46;2.80;99.90
15386;DHT22;7791;47.246;9.648;2022-11-23T04:29:11;2.70;99.90
15386;DHT22;7791;47.246;9.648;2022-11-23T04:31:52;2.60;99.90
15386;DHT22;7791;47.246;9.648;2022-11-23T04:34:19;2.50;99.90
15386;DHT22;7791;47.246;9.648;2022-11-23T04:36:44;2.30;99.90
15386;DHT22;7791;47.246;9.648;2022-11-23T04:39:10;2.20;99.90
15386;DHT22;7791;47.246;9.648;2022-11-23T04:41:38;2.10;99.90
15386;DHT22;7791;47.246;9.648;2022-11-23T04:44:04;2.10;99.90
15386;DHT22;7791;47.246;9.648;2022-11-23T04:46:30;2.00;99.90
15386;DHT22;7791;47.246;9.648;2022-11-23T04:48:56;1.90;99.90
15386;DHT22;7791;47.246;9.648;2022-11-23T04:51:23;1.70;99.90
15386;DHT22;7791;47.246;9.648;2022-11-23T04:53:49;1.70;99.90
15386;DHT22;7791;47.246;9.648;2022-11-23T04:56:16;1.70;99.90
15386;DHT22;7791;47.246;9.648;2022-11-23T04:58:44;1.60;99.90
15386;DHT22;7791;47.246;9.648;2022-11-23T05:01:10;1.50;99.90
15386;DHT22;7791;47.246;9.648;2022-11-23T05:03:36;1.50;99.90
15386;DHT22;7791;47.246;9.648;2022-11-23T05:06:04;1.50;99.90
15386;DHT22;7791;47.246;9.648;2022-11-23T05:08:30;1.50;99.90
15386;DHT22;7791;47.246;9.648;2022-11-23T05:10:56;1.40;99.90
15386;DHT22;7791;47.246;9.648;2022-11-23T05:13:23;1.30;99.90
15386;DHT22;7791;47.246;9.648;2022-11-23T05:15:51;1.20;99.90
15386;DHT22;7791;47.246;9.648;2022-11-23T05:21:20;1.10;99.90
15386;DHT22;7791;47.246;9.648;2022-11-23T05:23:46;1.00;99.90
15386;DHT22;7791;47.246;9.648;2022-11-23T05:26:12;0.90;99.90
15386;DHT22;7791;47.246;9.648;2022-11-23T05:28:38;1.00;99.90
15386;DHT22;7791;47.246;9.648;2022-11-23T05:31:06;0.90;99.90
15386;DHT22;7791;47.246;9.648;2022-11-23T05:36:35;0.90;99.90
15386;DHT22;7791;47.246;9.648;2022-11-23T05:39:01;0.90;99.90
15386;DHT22;7791;47.246;9.648;2022-11-23T05:41:27;0.90;99.90
15386;DHT22;7791;47.246;9.648;2022-11-23T05:43:53;0.80;99.90
15386;DHT22;7791;47.246;9.648;2022-11-23T05:46:20;0.80;99.90
15386;DHT22;7791;47.246;9.648;2022-11-23T05:51:52;0.60;99.90
15386;DHT22;7791;47.246;9.648;2022-11-23T05:54:19;0.50;99.90
15386;DHT22;7791;47.246;9.648;2022-11-23T05:56:45;0.50;99.90
15386;DHT22;7791;47.246;9.648;2022-11-23T05:59:11;0.40;99.90
15386;DHT22;7791;47.246;9.648;2022-11-23T06:01:38;0.40;99.90
15386;DHT22;7791;47.246;9.648;2022-11-23T06:04:35;0.30;99.90
15386;DHT22;7791;47.246;9.648;2022-11-23T06:07:06;0.20;99.90
15386;DHT22;7791;47.246;9.648;2022-11-23T06:09:32;0.20;99.90
15386;DHT22;7791;47.246;9.648;2022-11-23T06:11:58;0.40;99.90
15386;DHT22;7791;47.246;9.648;2022-11-23T06:14:24;0.60;99.90
15386;DHT22;7791;47.246;9.648;2022-11-23T06:16:52;0.70;99.90
15386;DHT22;7791;47.246;9.648;2022-11-23T06:19:19;0.60;99.90
15386;DHT22;7791;47.246;9.648;2022-11-23T06:21:45;0.70;99.90
15386;DHT22;7791;47.246;9.648;2022-11-23T06:24:14;0.60;99.90
15386;DHT22;7791;47.246;9.648;2022-11-23T06:26:42;0.40;99.90
15386;DHT22;7791;47.246;9.648;2022-11-23T06:29:08;0.30;99.90
15386;DHT22;7791;47.246;9.648;2022-11-23T06:31:34;0.30;99.90
15386;DHT22;7791;47.246;9.648;2022-11-23T06:34:03;0.20;99.90
15386;DHT22;7791;47.246;9.648;2022-11-23T06:36:32;0.10;99.90
15386;DHT22;7791;47.246;9.648;2022-11-23T06:38:58;0.10;99.90
15386;DHT22;7791;47.246;9.648;2022-11-23T06:41:26;0.10;99.90
15386;DHT22;7791;47.246;9.648;2022-11-23T06:43:52;0.10;99.90
15386;DHT22;7791;47.246;9.648;2022-11-23T06:46:18;0.10;99.90
15386;DHT22;7791;47.246;9.648;2022-11-23T06:48:45;0.10;99.90
15386;DHT22;7791;47.246;9.648;2022-11-23T06:51:13;0.20;99.90
15386;DHT22;7791;47.246;9.648;2022-11-23T06:53:39;0.30;99.90
15386;DHT22;7791;47.246;9.648;2022-11-23T06:56:06;0.30;99.90
15386;DHT22;7791;47.246;9.648;2022-11-23T06:58:33;0.40;99.90
15386;DHT22;7791;47.246;9.648;2022-11-23T07:00:59;0.40;99.90
15386;DHT22;7791;47.246;9.648;2022-11-23T07:03:25;0.40;99.90
15386;DHT22;7791;47.246;9.648;2022-11-23T07:06:12;0.50;99.90
15386;DHT22;7791;47.246;9.648;2022-11-23T07:08:38;0.60;99.90
15386;DHT22;7791;47.246;9.648;2022-11-23T07:11:05;0.80;99.90
15386;DHT22;7791;47.246;9.648;2022-11-23T07:13:31;0.90;99.90
15386;DHT22;7791;47.246;9.648;2022-11-23T07:15:57;1.20;99.90
15386;DHT22;7791;47.246;9.648;2022-11-23T07:18:24;1.50;99.90
15386;DHT22;7791;47.246;9.648;2022-11-23T07:20:51;1.60;99.90
15386;DHT22;7791;47.246;9.648;2022-11-23T07:23:19;1.60;99.90
15386;DHT22;7791;47.246;9.648;2022-11-23T07:25:45;1.70;99.90
15386;DHT22;7791;47.246;9.648;2022-11-23T07:28:11;1.80;99.90
15386;DHT22;7791;47.246;9.648;2022-11-23T07:30:38;1.90;99.90
15386;DHT22;7791;47.246;9.648;2022-11-23T07:33:05;2.00;99.90
15386;DHT22;7791;47.246;9.648;2022-11-23T07:44:43;2.40;99.90
15386;DHT22;7791;47.246;9.648;2022-11-23T07:47:10;2.90;99.90
15386;DHT22;7791;47.246;9.648;2022-11-23T07:49:36;3.60;99.90
15386;DHT22;7791;47.246;9.648;2022-11-23T07:55:33;5.30;99.90
15386;DHT22;7791;47.246;9.648;2022-11-23T07:57:59;6.00;99.90
15386;DHT22;7791;47.246;9.648;2022-11-23T08:00:28;6.50;99.90
15386;DHT22;7791;47.246;9.648;2022-11-23T08:02:56;6.80;99.90
15386;DHT22;7791;47.246;9.648;2022-11-23T08:05:22;7.00;99.90
15386;DHT22;7791;47.246;9.648;2022-11-23T08:10:51;7.90;99.90
15386;DHT22;7791;47.246;9.648;2022-11-23T08:13:17;8.20;99.90
15386;DHT22;7791;47.246;9.648;2022-11-23T08:15:45;8.40;99.90
15386;DHT22;7791;47.246;9.648;2022-11-23T08:18:14;8.40;99.90
15386;DHT22;7791;47.246;9.648;2022-11-23T08:20:40;8.40;99.90
15386;DHT22;7791;47.246;9.648;2022-11-23T08:26:10;8.90;99.90
15386;DHT22;7791;47.246;9.648;2022-11-23T08:28:35;9.10;99.90
15386;DHT22;7791;47.246;9.648;2022-11-23T08:31:06;9.20;99.90
15386;DHT22;7791;47.246;9.648;2022-11-23T08:33:33;9.40;99.90
15386;DHT22;7791;47.246;9.648;2022-11-23T08:36:03;9.80;99.90
15386;DHT22;7791;47.246;9.648;2022-11-23T08:42:06;10.20;99.90
15386;DHT22;7791;47.246;9.648;2022-11-23T08:44:32;10.20;99.90
15386;DHT22;7791;47.246;9.648;2022-11-23T08:46:59;10.30;99.90
15386;DHT22;7791;47.246;9.648;2022-11-23T08:49:25;10.50;99.90
15386;DHT22;7791;47.246;9.648;2022-11-23T08:51:52;10.60;99.90
15386;DHT22;7791;47.246;9.648;2022-11-23T08:54:18;10.70;99.90
15386;DHT22;7791;47.246;9.648;2022-11-23T08:56:44;10.90;99.90
15386;DHT22;7791;47.246;9.648;2022-11-23T08:59:10;11.00;99.90
15386;DHT22;7791;47.246;9.648;2022-11-23T09:01:36;11.30;99.90
15386;DHT22;7791;47.246;9.648;2022-11-23T09:04:04;11.50;99.90
15386;DHT22;7791;47.246;9.648;2022-11-23T09:06:32;11.60;99.90
15386;DHT22;7791;47.246;9.648;2022-11-23T09:08:57;12.20;99.90
15386;DHT22;7791;47.246;9.648;2022-11-23T09:11:24;13.00;99.90
15386;DHT22;7791;47.246;9.648;2022-11-23T09:13:50;13.30;99.90
15386;DHT22;7791;47.246;9.648;2022-11-23T09:16:16;13.80;99.90
15386;DHT22;7791;47.246;9.648;2022-11-23T09:18:43;13.80;99.90
15386;DHT22;7791;47.246;9.648;2022-11-23T09:21:10;14.00;99.90
15386;DHT22;7791;47.246;9.648;2022-11-23T09:23:36;14.40;99.90
15386;DHT22;7791;47.246;9.648;2022-11-23T09:26:03;14.80;99.90
15386;DHT22;7791;47.246;9.648;2022-11-23T09:28:31;15.10;99.90
15386;DHT22;7791;47.246;9.648;2022-11-23T09:31:00;15.50;99.90
15386;DHT22;7791;47.246;9.648;2022-11-23T09:33:27;15.60;99.90
15386;DHT22;7791;47.246;9.648;2022-11-23T09:35:57;15.60;99.90
15386;DHT22;7791;47.246;9.648;2022-11-23T09:41:46;16.10;98.70
15386;DHT22;7791;47.246;9.648;2022-11-23T09:44:17;16.50;98.40
15386;DHT22;7791;47.246;9.648;2022-11-23T09:46:56;16.60;98.60
15386;DHT22;7791;47.246;9.648;2022-11-23T09:49:32;16.80;97.80
15386;DHT22;7791;47.246;9.648;2022-11-23T09:52:02;16.90;97.00
15386;DHT22;7791;47.246;9.648;2022-11-23T09:57:33;17.10;96.00
15386;DHT22;7791;47.246;9.648;2022-11-23T10:00:04;17.00;96.20
15386;DHT22;7791;47.246;9.648;2022-11-23T10:02:34;17.20;96.50
15386;DHT22;7791;47.246;9.648;2022-11-23T10:05:03;17.40;97.10
15386;DHT22;7791;47.246;9.648;2022-11-23T10:07:42;17.70;95.40
15386;DHT22;7791;47.246;9.648;2022-11-23T10:13:27;18.00;94.60
15386;DHT22;7791;47.246;9.648;2022-11-23T10:16:10;17.80;93.50
15386;DHT22;7791;47.246;9.648;2022-11-23T10:18:46;17.20;93.40
15386;DHT22;7791;47.246;9.648;2022-11-23T10:21:21;16.50;94.80
15386;DHT22;7791;47.246;9.648;2022-11-23T10:29:58;16.40;95.20
15386;DHT22;7791;47.246;9.648;2022-11-23T10:32:28;16.40;94.70
15386;DHT22;7791;47.246;9.648;2022-11-23T10:35:04;16.50;94.20
15386;DHT22;7791;47.246;9.648;2022-11-23T10:37:31;16.60;93.40
15386;DHT22;7791;47.246;9.648;2022-11-23T10:40:24;16.50;92.90
15386;DHT22;7791;47.246;9.648;2022-11-23T10:42:55;16.70;92.70
15386;DHT22;7791;47.246;9.648;2022-11-23T10:45:26;16.40;91.60
15386;DHT22;7791;47.246;9.648;2022-11-23T10:47:53;16.10;93.30
15386;DHT22;7791;47.246;9.648;2022-11-23T10:50:24;16.30;94.80
15386;DHT22;7791;47.246;9.648;2022-11-23T10:52:52;16.30;93.00
15386;DHT22;7791;47.246;9.648;2022-11-23T11:01:27;15.90;94.20
15386;DHT22;7791;47.246;9.648;2022-11-23T11:03:55;16.20;93.60
15386;DHT22;7791;47.246;9.648;2022-11-23T11:06:23;16.30;93.20
15386;DHT22;7791;47.246;9.648;2022-11-23T11:08:52;16.50;92.50
15386;DHT22;7791;47.246;9.648;2022-11-23T11:14:23;17.00;93.00
15386;DHT22;7791;47.246;9.648;2022-11-23T11:16:53;17.10;92.70
15386;DHT22;7791;47.246;9.648;2022-11-23T11:28:54;17.60;92.00
15386;DHT22;7791;47.246;9.648;2022-11-23T11:53:02;16.90;88.00
15386;DHT22;7791;47.246;9.648;2022-11-23T11:58:35;16.70;90.80
15386;DHT22;7791;47.246;9.648;2022-11-23T12:01:07;16.90;89.70
15386;DHT22;7791;47.246;9.648;2022-11-23T12:03:40;16.80;87.80
15386;DHT22;7791;47.246;9.648;2022-11-23T12:06:12;16.10;90.00
15386;DHT22;7791;47.246;9.648;2022-11-23T12:08:46;15.70;87.00
15386;DHT22;7791;47.246;9.648;2022-11-23T12:11:16;15.60;89.60
15386;DHT22;7791;47.246;9.648;2022-11-23T12:13:43;15.20;90.00
15386;DHT22;7791;47.246;9.648;2022-11-23T12:16:15;15.40;88.90
15386;DHT22;7791;47.246;9.648;2022-11-23T12:19:02;15.80;89.80
15386;DHT22;7791;47.246;9.648;2022-11-23T12:24:55;15.90;90.50
15386;DHT22;7791;47.246;9.648;2022-11-23T12:27:29;15.90;90.20
15386;DHT22;7791;47.246;9.648;2022-11-23T12:30:11;16.00;91.20
15386;DHT22;7791;47.246;9.648;2022-11-23T12:32:49;15.90;91.00
15386;DHT22;7791;47.246;9.648;2022-11-23T12:35:41;15.40;90.50
15386;DHT22;7791;47.246;9.648;2022-11-23T12:38:15;14.90;93.00
15386;DHT22;7791;47.246;9.648;2022-11-23T12:43:55;13.20;94.30
15386;DHT22;7791;47.246;9.648;2022-11-23T12:46:38;12.80;94.40
15386;DHT22;7791;47.246;9.648;2022-11-23T12:49:18;12.60;94.10
15386;DHT22;7791;47.246;9.648;2022-11-23T12:51:56;12.60;95.70
15386;DHT22;7791;47.246;9.648;2022-11-23T12:54:37;12.70;94.20
15386;DHT22;7791;47.246;9.648;2022-11-23T12:57:30;12.80;92.20
15386;DHT22;7791;47.246;9.648;2022-11-23T13:00:02;13.00;93.20
15386;DHT22;7791;47.246;9.648;2022-11-23T13:08:56;13.90;92.60
15386;DHT22;7791;47.246;9.648;2022-11-23T13:11:35;14.40;92.40
15386;DHT22;7791;47.246;9.648;2022-11-23T13:14:15;14.60;92.00
15386;DHT22;7791;47.246;9.648;2022-11-23T13:16:59;15.00;92.00
15386;DHT22;7791;47.246;9.648;2022-11-23T13:19:42;15.20;92.00
15386;DHT22;7791;47.246;9.648;2022-11-23T13:22:19;15.10;91.90
15386;DHT22;7791;47.246;9.648;2022-11-23T13:25:13;15.00;92.20
15386;DHT22;7791;47.246;9.648;2022-11-23T13:27:42;15.00;92.20
15386;DHT22;7791;47.246;9.648;2022-11-23T13:30:47;14.90;92.80
15386;DHT22;7791;47.246;9.648;2022-11-23T13:33:36;15.00;92.60
15386;DHT22;7791;47.246;9.648;2022-11-23T13:36:03;14.70;92.40
15386;DHT22;7791;47.246;9.648;2022-11-23T13:38:40;14.40;94.20
15386;DHT22;7791;47.246;9.648;2022-11-23T14:06:02;12.30;93.40
15386;DHT22;7791;47.246;9.648;2022-11-23T14:08:30;12.20;92.60
15386;DHT22;7791;47.246;9.648;2022-11-23T14:10:57;12.00;92.90
15386;DHT22;7791;47.246;9.648;2022-11-23T14:13:31;11.60;92.90
15386;DHT22;7791;47.246;9.648;2022-11-23T14:22:11;9.80;96.90
15386;DHT22;7791;47.246;9.648;2022-11-23T14:25:01;9.40;98.30
15386;DHT22;7791;47.246;9.648;2022-11-23T14:27:43;9.00;99.50
15386;DHT22;7791;47.246;9.648;2022-11-23T14:30:42;8.70;99.90
15386;DHT22;7791;47.246;9.648;2022-11-23T14:33:21;8.50;97.90
15386;DHT22;7791;47.246;9.648;2022-11-23T14:36:00;8.50;97.90
15386;DHT22;7791;47.246;9.648;2022-11-23T14:41:19;8.40;98.60
15386;DHT22;7791;47.246;9.648;2022-11-23T14:43:46;8.20;99.50
15386;DHT22;7791;47.246;9.648;2022-11-23T14:46:21;8.00;99.20
15386;DHT22;7791;47.246;9.648;2022-11-23T14:48:48;8.00;99.40
15386;DHT22;7791;47.246;9.648;2022-11-23T14:51:17;8.10;99.90
15386;DHT22;7791;47.246;9.648;2022-11-23T14:53:44;8.20;99.90
15386;DHT22;7791;47.246;9.648;2022-11-23T14:56:21;8.30;99.80
15386;DHT22;7791;47.246;9.648;2022-11-23T14:58:49;8.40;99.40
15386;DHT22;7791;47.246;9.648;2022-11-23T15:01:25;8.50;99.90
15386;DHT22;7791;47.246;9.648;2022-11-23T15:03:58;8.50;99.10
15386;DHT22;7791;47.246;9.648;2022-11-23T15:06:26;8.50;99.90
15386;DHT22;7791;47.246;9.648;2022-11-23T15:09:03;8.40;99.90
15386;DHT22;7791;47.246;9.648;2022-11-23T15:11:31;8.30;99.90
15386;DHT22;7791;47.246;9.648;2022-11-23T15:13:59;8.20;99.90
15386;DHT22;7791;47.246;9.648;2022-11-23T15:16:27;8.10;99.90
15386;DHT22;7791;47.246;9.648;2022-11-23T15:18:53;8.00;99.90
15386;DHT22;7791;47.246;9.648;2022-11-23T15:21:22;7.90;99.90
15386;DHT22;7791;47.246;9.648;2022-11-23T15:23:49;7.90;99.90
15386;DHT22;7791;47.246;9.648;2022-11-23T15:26:19;7.80;99.90
15386;DHT22;7791;47.246;9.648;2022-11-23T15:37:07;7.60;99.90
15386;DHT22;7791;47.246;9.648;2022-11-23T16:04:24;7.20;99.90
15386;DHT22;7791;47.246;9.648;2022-11-23T16:06:51;7.00;99.90
15386;DHT22;7791;47.246;9.648;2022-11-23T16:09:36;6.90;99.90
15386;DHT22;7791;47.246;9.648;2022-11-23T16:12:17;6.80;99.90
15386;DHT22;7791;47.246;9.648;2022-11-23T16:14:44;6.80;99.90
15386;DHT22;7791;47.246;9.648;2022-11-23T16:17:16;6.80;99.90
15386;DHT22;7791;47.246;9.648;2022-11-23T16:19:55;6.90;99.90
15386;DHT22;7791;47.246;9.648;2022-11-23T16:22:27;7.00;99.90
15386;DHT22;7791;47.246;9.648;2022-11-23T16:25:00;6.90;99.90
15386;DHT22;7791;47.246;9.648;2022-11-23T16:27:32;7.00;99.90
15386;DHT22;7791;47.246;9.648;2022-11-23T16:30:03;7.00;99.90
15386;DHT22;7791;47.246;9.648;2022-11-23T16:32:31;7.00;99.90
15386;DHT22;7791;47.246;9.648;2022-11-23T16:35:19;7.00;99.90
15386;DHT22;7791;47.246;9.648;2022-11-23T16:37:46;7.10;99.90
15386;DHT22;7791;47.246;9.648;2022-11-23T16:40:14;7.00;99.90
15386;DHT22;7791;47.246;9.648;2022-11-23T16:42:49;7.00;99.90
15386;DHT22;7791;47.246;9.648;2022-11-23T16:45:22;7.10;99.90
15386;DHT22;7791;47.246;9.648;2022-11-23T16:47:54;7.00;99.90
15386;DHT22;7791;47.246;9.648;2022-11-23T16:50:25;7.00;99.90
15386;DHT22;7791;47.246;9.648;2022-11-23T16:52:51;7.00;99.90
15386;DHT22;7791;47.246;9.648;2022-11-23T16:55:17;7.00;99.90
15386;DHT22;7791;47.246;9.648;2022-11-23T16:57:45;6.90;99.90
15386;DHT22;7791;47.246;9.648;2022-11-23T17:00:15;7.10;99.90
15386;DHT22;7791;47.246;9.648;2022-11-23T17:02:45;7.20;99.90
15386;DHT22;7791;47.246;9.648;2022-11-23T17:05:19;7.30;99.90
15386;DHT22;7791;47.246;9.648;2022-11-23T17:07:47;7.30;99.90
15386;DHT22;7791;47.246;9.648;2022-11-23T17:10:17;7.30;99.90
15386;DHT22;7791;47.246;9.648;2022-11-23T17:12:47;7.30;99.90
15386;DHT22;7791;47.246;9.648;2022-11-23T17:15:20;7.20;99.90
15386;DHT22;7791;47.246;9.648;2022-11-23T17:17:47;7.10;99.90
15386;DHT22;7791;47.246;9.648;2022-11-23T17:23:17;7.30;99.90
15386;DHT22;7791;47.246;9.648;2022-11-23T17:25:53;7.30;99.90
15386;DHT22;7791;47.246;9.648;2022-11-23T17:28:27;7.30;99.90
15386;DHT22;7791;47.246;9.648;2022-11-23T17:30:53;7.30;99.90
15386;DHT22;7791;47.246;9.648;2022-11-23T17:33:20;7.20;99.90
15386;DHT22;7791;47.246;9.648;2022-11-23T17:35:46;7.20;99.90
15386;DHT22;7791;47.246;9.648;2022-11-23T17:38:14;7.20;99.90
15386;DHT22;7791;47.246;9.648;2022-11-23T17:40:41;7.30;99.90
15386;DHT22;7791;47.246;9.648;2022-11-23T17:43:11;7.30;99.90
15386;DHT22;7791;47.246;9.648;2022-11-23T17:45:38;6.80;99.90
15386;DHT22;7791;47.246;9.648;2022-11-23T17:48:05;6.70;99.90
15386;DHT22;7791;47.246;9.648;2022-11-23T17:50:30;6.70;99.90
15386;DHT22;7791;47.246;9.648;2022-11-23T17:53:18;6.80;99.90
15386;DHT22;7791;47.246;9.648;2022-11-23T17:55:46;6.90;99.90
15386;DHT22;7791;47.246;9.648;2022-11-23T17:58:13;7.10;99.90
15386;DHT22;7791;47.246;9.648;2022-11-23T18:00:40;7.10;99.90
15386;DHT22;7791;47.246;9.648;2022-11-23T18:03:07;7.20;99.90
15386;DHT22;7791;47.246;9.648;2022-11-23T18:05:33;7.30;99.90
15386;DHT22;7791;47.246;9.648;2022-11-23T18:08:09;7.30;99.90
15386;DHT22;7791;47.246;9.648;2022-11-23T18:10:35;7.10;99.90
15386;DHT22;7791;47.246;9.648;2022-11-23T18:13:02;7.00;99.90
15386;DHT22;7791;47.246;9.648;2022-11-23T18:15:27;6.90;99.90
15386;DHT22;7791;47.246;9.648;2022-11-23T18:17:53;6.90;99.90
15386;DHT22;7791;47.246;9.648;2022-11-23T18:20:19;6.90;99.90
15386;DHT22;7791;47.246;9.648;2022-11-23T18:22:47;6.80;99.90
15386;DHT22;7791;47.246;9.648;2022-11-23T18:25:16;6.60;99.90
15386;DHT22;7791;47.246;9.648;2022-11-23T18:27:42;6.30;99.90
15386;DHT22;7791;47.246;9.648;2022-11-23T18:30:13;6.10;99.90
15386;DHT22;7791;47.246;9.648;2022-11-23T18:32:40;6.10;99.90
15386;DHT22;7791;47.246;9.648;2022-11-23T18:35:08;6.10;99.90
15386;DHT22;7791;47.246;9.648;2022-11-23T18:37:34;6.20;99.90
15386;DHT22;7791;47.246;9.648;2022-11-23T18:40:01;6.20;99.90
15386;DHT22;7791;47.246;9.648;2022-11-23T18:42:31;6.30;99.90
15386;DHT22;7791;47.246;9.648;2022-11-23T18:44:57;6.30;99.90
15386;DHT22;7791;47.246;9.648;2022-11-23T18:47:25;6.30;99.90
15386;DHT22;7791;47.246;9.648;2022-11-23T18:49:50;6.30;99.90
15386;DHT22;7791;47.246;9.648;2022-11-23T18:52:24;6.30;99.90
15386;DHT22;7791;47.246;9.648;2022-11-23T18:54:56;6.40;99.90
15386;DHT22;7791;47.246;9.648;2022-11-23T18:57:23;6.40;99.90
15386;DHT22;7791;47.246;9.648;2022-11-23T18:59:49;6.50;99.90
15386;DHT22;7791;47.246;9.648;2022-11-23T19:02:16;6.50;99.90
15386;DHT22;7791;47.246;9.648;2022-11-23T19:04:44;6.50;99.90
15386;DHT22;7791;47.246;9.648;2022-11-23T19:07:10;6.50;99.90
15386;DHT22;7791;47.246;9.648;2022-11-23T19:09:36;6.50;99.90
15386;DHT22;7791;47.246;9.648;2022-11-23T19:12:03;6.40;99.90
15386;DHT22;7791;47.246;9.648;2022-11-23T19:14:29;6.40;99.90